sensor_id;sensor_type;location;lat;lon;timestamp;temperature;humidity
17092;DHT22;8661;45.700;4.880;2023-12-20T00:00:01;3.60;99.90
17092;DHT22;8661;45.700;4.880;2023-12-20T00:02:30;3.60;99.90
17092;DHT22;8661;45.700;4.880;2023-12-20T00:04:57;3.60;99.90
17092;DHT22;8661;45.700;4.880;2023-12-20T00:07:26;3.60;99.90
17092;DHT22;8661;45.700;4.880;2023-12-20T00:09:54;3.60;99.90
17092;DHT22;8661;45.700;4.880;2023-12-20T00:12:21;3.60;99.90
17092;DHT22;8661;45.700;4.880;2023-12-20T00:14:48;3.60;99.90
17092;DHT22;8661;45.700;4.880;2023-12-20T00:17:15;3.60;99.90
17092;DHT22;8661;45.700;4.880;2023-12-20T00:19:41;3.60;99.90
17092;DHT22;8661;45.700;4.880;2023-12-20T00:22:08;3.60;99.90
17092;DHT22;8661;45.700;4.880;2023-12-20T00:24:36;3.60;99.90
17092;DHT22;8661;45.700;4.880;2023-12-20T00:27:05;3.60;99.90
17092;DHT22;8661;45.700;4.880;2023-12-20T00:29:32;3.60;99.90
17092;DHT22;8661;45.700;4.880;2023-12-20T00:31:59;3.60;99.90
17092;DHT22;8661;45.700;4.880;2023-12-20T00:34:26;3.70;99.90
17092;DHT22;8661;45.700;4.880;2023-12-20T00:36:53;3.70;99.90
17092;DHT22;8661;45.700;4.880;2023-12-20T00:39:20;3.60;99.90
17092;DHT22;8661;45.700;4.880;2023-12-20T00:41:47;3.60;99.90
17092;DHT22;8661;45.700;4.880;2023-12-20T00:44:16;3.60;99.90
17092;DHT22;8661;45.700;4.880;2023-12-20T00:46:43;3.70;99.90
17092;DHT22;8661;45.700;4.880;2023-12-20T00:49:10;3.60;99.90
17092;DHT22;8661;45.700;4.880;2023-12-20T00:51:36;3.70;99.90
17092;DHT22;8661;45.700;4.880;2023-12-20T00:54:04;3.80;99.90
17092;DHT22;8661;45.700;4.880;2023-12-20T00:56:30;3.70;99.90
17092;DHT22;8661;45.700;4.880;2023-12-20T00:58:57;3.70;99.90
17092;DHT22;8661;45.700;4.880;2023-12-20T01:01:26;3.70;99.90
17092;DHT22;8661;45.700;4.880;2023-12-20T01:03:53;3.70;99.90
17092;DHT22;8661;45.700;4.880;2023-12-20T01:06:21;3.80;99.90
17092;DHT22;8661;45.700;4.880;2023-12-20T01:08:55;3.80;99.90
17092;DHT22;8661;45.700;4.880;2023-12-20T01:11:22;3.80;99.90
17092;DHT22;8661;45.700;4.880;2023-12-20T01:13:49;3.70;99.90
17092;DHT22;8661;45.700;4.880;2023-12-20T01:16:17;3.70;99.90
17092;DHT22;8661;45.700;4.880;2023-12-20T01:18:48;3.70;99.90
17092;DHT22;8661;45.700;4.880;2023-12-20T01:21:15;3.70;99.90
17092;DHT22;8661;45.700;4.880;2023-12-20T01:23:42;3.70;99.90
17092;DHT22;8661;45.700;4.880;2023-12-20T01:26:09;3.60;99.90
17092;DHT22;8661;45.700;4.880;2023-12-20T01:28:37;3.70;99.90
17092;DHT22;8661;45.700;4.880;2023-12-20T01:31:04;3.70;99.90
17092;DHT22;8661;45.700;4.880;2023-12-20T01:33:39;3.70;99.90
17092;DHT22;8661;45.700;4.880;2023-12-20T01:36:09;3.70;99.90
17092;DHT22;8661;45.700;4.880;2023-12-20T01:38:42;3.80;99.90
17092;DHT22;8661;45.700;4.880;2023-12-20T01:41:09;3.80;99.90
17092;DHT22;8661;45.700;4.880;2023-12-20T01:43:40;3.80;99.90
17092;DHT22;8661;45.700;4.880;2023-12-20T01:46:12;3.80;99.90
17092;DHT22;8661;45.700;4.880;2023-12-20T01:48:39;3.80;99.90
17092;DHT22;8661;45.700;4.880;2023-12-20T01:51:09;3.80;99.90
17092;DHT22;8661;45.700;4.880;2023-12-20T01:53:44;3.70;99.90
17092;DHT22;8661;45.700;4.880;2023-12-20T01:56:14;3.70;99.90
17092;DHT22;8661;45.700;4.880;2023-12-20T01:58:44;3.70;99.90
17092;DHT22;8661;45.700;4.880;2023-12-20T02:01:12;3.70;99.90
17092;DHT22;8661;45.700;4.880;2023-12-20T02:03:39;3.70;99.90
17092;DHT22;8661;45.700;4.880;2023-12-20T02:06:07;3.70;99.90
17092;DHT22;8661;45.700;4.880;2023-12-20T02:08:36;3.70;99.90
17092;DHT22;8661;45.700;4.880;2023-12-20T02:11:04;3.80;99.90
17092;DHT22;8661;45.700;4.880;2023-12-20T02:13:31;3.80;99.90
17092;DHT22;8661;45.700;4.880;2023-12-20T02:15:58;3.90;99.90
17092;DHT22;8661;45.700;4.880;2023-12-20T02:18:26;3.80;99.90
17092;DHT22;8661;45.700;4.880;2023-12-20T02:20:53;3.80;99.90
17092;DHT22;8661;45.700;4.880;2023-12-20T02:23:22;3.90;99.90
17092;DHT22;8661;45.700;4.880;2023-12-20T02:25:49;3.80;99.90
17092;DHT22;8661;45.700;4.880;2023-12-20T02:28:16;3.80;99.90
17092;DHT22;8661;45.700;4.880;2023-12-20T02:30:43;3.90;99.90
17092;DHT22;8661;45.700;4.880;2023-12-20T02:33:12;3.90;99.90
17092;DHT22;8661;45.700;4.880;2023-12-20T02:35:41;3.90;99.90
17092;DHT22;8661;45.700;4.880;2023-12-20T02:38:08;3.90;99.90
17092;DHT22;8661;45.700;4.880;2023-12-20T02:40:36;3.90;99.90
17092;DHT22;8661;45.700;4.880;2023-12-20T02:43:03;3.90;99.90
17092;DHT22;8661;45.700;4.880;2023-12-20T02:45:31;3.90;99.90
17092;DHT22;8661;45.700;4.880;2023-12-20T02:47:58;3.90;99.90
17092;DHT22;8661;45.700;4.880;2023-12-20T02:50:25;3.90;99.90
17092;DHT22;8661;45.700;4.880;2023-12-20T02:52:52;3.90;99.90
17092;DHT22;8661;45.700;4.880;2023-12-20T02:55:21;3.90;99.90
17092;DHT22;8661;45.700;4.880;2023-12-20T02:57:50;3.90;99.90
17092;DHT22;8661;45.700;4.880;2023-12-20T03:00:17;3.90;99.90
17092;DHT22;8661;45.700;4.880;2023-12-20T03:02:45;3.90;99.90
17092;DHT22;8661;45.700;4.880;2023-12-20T03:05:12;3.90;99.90
17092;DHT22;8661;45.700;4.880;2023-12-20T03:07:39;3.90;99.90
17092;DHT22;8661;45.700;4.880;2023-12-20T03:10:07;4.00;99.90
17092;DHT22;8661;45.700;4.880;2023-12-20T03:12:35;4.00;99.90
17092;DHT22;8661;45.700;4.880;2023-12-20T03:15:04;4.00;99.90
17092;DHT22;8661;45.700;4.880;2023-12-20T03:17:31;4.00;99.90
17092;DHT22;8661;45.700;4.880;2023-12-20T03:19:58;4.00;99.90
17092;DHT22;8661;45.700;4.880;2023-12-20T03:22:25;4.00;99.90
17092;DHT22;8661;45.700;4.880;2023-12-20T03:24:54;4.00;99.90
17092;DHT22;8661;45.700;4.880;2023-12-20T03:27:21;4.00;99.90
17092;DHT22;8661;45.700;4.880;2023-12-20T03:29:48;4.00;99.90
17092;DHT22;8661;45.700;4.880;2023-12-20T03:32:16;4.00;99.90
17092;DHT22;8661;45.700;4.880;2023-12-20T03:34:43;4.00;99.90
17092;DHT22;8661;45.700;4.880;2023-12-20T03:37:10;4.10;99.90
17092;DHT22;8661;45.700;4.880;2023-12-20T03:39:37;4.10;99.90
17092;DHT22;8661;45.700;4.880;2023-12-20T03:42:04;4.10;99.90
17092;DHT22;8661;45.700;4.880;2023-12-20T03:44:31;4.10;99.90
17092;DHT22;8661;45.700;4.880;2023-12-20T03:46:58;4.10;99.90
17092;DHT22;8661;45.700;4.880;2023-12-20T03:49:26;4.20;99.90
17092;DHT22;8661;45.700;4.880;2023-12-20T03:51:53;4.20;99.90
17092;DHT22;8661;45.700;4.880;2023-12-20T03:54:20;4.20;99.90
17092;DHT22;8661;45.700;4.880;2023-12-20T03:57:05;4.20;99.90
17092;DHT22;8661;45.700;4.880;2023-12-20T03:59:35;4.20;99.90
17092;DHT22;8661;45.700;4.880;2023-12-20T04:02:02;4.20;99.90
17092;DHT22;8661;45.700;4.880;2023-12-20T04:04:30;4.20;99.90
17092;DHT22;8661;45.700;4.880;2023-12-20T04:06:57;4.20;99.90
17092;DHT22;8661;45.700;4.880;2023-12-20T04:09:24;4.10;99.90
17092;DHT22;8661;45.700;4.880;2023-12-20T04:11:51;4.10;99.90
17092;DHT22;8661;45.700;4.880;2023-12-20T04:14:18;4.10;99.90
17092;DHT22;8661;45.700;4.880;2023-12-20T04:16:47;4.10;99.90
17092;DHT22;8661;45.700;4.880;2023-12-20T04:19:14;4.10;99.90
17092;DHT22;8661;45.700;4.880;2023-12-20T04:21:43;4.10;99.90
17092;DHT22;8661;45.700;4.880;2023-12-20T04:24:10;4.10;99.90
17092;DHT22;8661;45.700;4.880;2023-12-20T04:26:37;4.10;99.90
17092;DHT22;8661;45.700;4.880;2023-12-20T04:29:05;4.10;99.90
17092;DHT22;8661;45.700;4.880;2023-12-20T04:31:44;4.20;99.90
17092;DHT22;8661;45.700;4.880;2023-12-20T04:34:24;4.20;99.90
17092;DHT22;8661;45.700;4.880;2023-12-20T04:36:53;4.10;99.90
17092;DHT22;8661;45.700;4.880;2023-12-20T04:39:20;4.10;99.90
17092;DHT22;8661;45.700;4.880;2023-12-20T04:41:47;4.10;99.90
17092;DHT22;8661;45.700;4.880;2023-12-20T04:44:15;4.10;99.90
17092;DHT22;8661;45.700;4.880;2023-12-20T04:46:42;4.20;99.90
17092;DHT22;8661;45.700;4.880;2023-12-20T04:49:10;4.20;99.90
17092;DHT22;8661;45.700;4.880;2023-12-20T04:51:37;4.10;99.90
17092;DHT22;8661;45.700;4.880;2023-12-20T04:54:08;4.10;99.90
17092;DHT22;8661;45.700;4.880;2023-12-20T04:56:53;4.20;99.90
17092;DHT22;8661;45.700;4.880;2023-12-20T04:59:22;4.20;99.90
17092;DHT22;8661;45.700;4.880;2023-12-20T05:01:51;4.20;99.90
17092;DHT22;8661;45.700;4.880;2023-12-20T05:04:23;4.20;99.90
17092;DHT22;8661;45.700;4.880;2023-12-20T05:06:52;4.10;99.90
17092;DHT22;8661;45.700;4.880;2023-12-20T05:09:24;4.10;99.90
17092;DHT22;8661;45.700;4.880;2023-12-20T05:11:53;4.10;99.90
17092;DHT22;8661;45.700;4.880;2023-12-20T05:14:20;4.20;99.90
17092;DHT22;8661;45.700;4.880;2023-12-20T05:16:47;4.20;99.90
17092;DHT22;8661;45.700;4.880;2023-12-20T05:19:16;4.20;99.90
17092;DHT22;8661;45.700;4.880;2023-12-20T05:21:44;4.20;99.90
17092;DHT22;8661;45.700;4.880;2023-12-20T05:24:17;4.20;99.90
17092;DHT22;8661;45.700;4.880;2023-12-20T05:26:47;4.20;99.90
17092;DHT22;8661;45.700;4.880;2023-12-20T05:29:14;4.20;99.90
17092;DHT22;8661;45.700;4.880;2023-12-20T05:31:42;4.20;99.90
17092;DHT22;8661;45.700;4.880;2023-12-20T05:34:09;4.20;99.90
17092;DHT22;8661;45.700;4.880;2023-12-20T05:36:36;4.20;99.90
17092;DHT22;8661;45.700;4.880;2023-12-20T05:39:04;4.20;99.90
17092;DHT22;8661;45.700;4.880;2023-12-20T05:41:33;4.20;99.90
17092;DHT22;8661;45.700;4.880;2023-12-20T05:44:03;4.20;99.90
17092;DHT22;8661;45.700;4.880;2023-12-20T05:46:32;4.20;99.90
17092;DHT22;8661;45.700;4.880;2023-12-20T05:49:04;4.30;99.90
17092;DHT22;8661;45.700;4.880;2023-12-20T05:51:33;4.20;99.90
17092;DHT22;8661;45.700;4.880;2023-12-20T05:54:00;4.30;99.90
17092;DHT22;8661;45.700;4.880;2023-12-20T05:56:27;4.30;99.90
17092;DHT22;8661;45.700;4.880;2023-12-20T05:58:58;4.30;99.90
17092;DHT22;8661;45.700;4.880;2023-12-20T06:01:26;4.30;99.90
17092;DHT22;8661;45.700;4.880;2023-12-20T06:04:17;4.30;99.90
17092;DHT22;8661;45.700;4.880;2023-12-20T06:06:57;4.30;99.90
17092;DHT22;8661;45.700;4.880;2023-12-20T06:09:31;4.30;99.90
17092;DHT22;8661;45.700;4.880;2023-12-20T06:12:03;4.30;99.90
17092;DHT22;8661;45.700;4.880;2023-12-20T06:14:30;4.40;99.90
17092;DHT22;8661;45.700;4.880;2023-12-20T06:16:59;4.40;99.90
17092;DHT22;8661;45.700;4.880;2023-12-20T06:19:35;4.30;99.90
17092;DHT22;8661;45.700;4.880;2023-12-20T06:22:03;4.40;99.90
17092;DHT22;8661;45.700;4.880;2023-12-20T06:24:30;4.40;99.90
17092;DHT22;8661;45.700;4.880;2023-12-20T06:27:07;4.40;99.90
17092;DHT22;8661;45.700;4.880;2023-12-20T06:29:42;4.40;99.90
17092;DHT22;8661;45.700;4.880;2023-12-20T06:32:20;4.50;99.90
17092;DHT22;8661;45.700;4.880;2023-12-20T06:34:50;4.50;99.90
17092;DHT22;8661;45.700;4.880;2023-12-20T06:37:20;4.50;99.90
17092;DHT22;8661;45.700;4.880;2023-12-20T06:39:57;4.50;99.90
17092;DHT22;8661;45.700;4.880;2023-12-20T06:42:35;4.50;99.90
17092;DHT22;8661;45.700;4.880;2023-12-20T06:45:39;4.50;99.90
17092;DHT22;8661;45.700;4.880;2023-12-20T06:48:30;4.50;99.90
17092;DHT22;8661;45.700;4.880;2023-12-20T06:51:20;4.50;99.90
17092;DHT22;8661;45.700;4.880;2023-12-20T06:53:55;4.50;99.90
17092;DHT22;8661;45.700;4.880;2023-12-20T06:56:45;4.50;99.90
17092;DHT22;8661;45.700;4.880;2023-12-20T06:59:20;4.50;99.90
17092;DHT22;8661;45.700;4.880;2023-12-20T07:01:59;4.50;99.90
17092;DHT22;8661;45.700;4.880;2023-12-20T07:07:42;4.50;99.90
17092;DHT22;8661;45.700;4.880;2023-12-20T07:10:24;4.60;99.90
17092;DHT22;8661;45.700;4.880;2023-12-20T07:12:54;4.60;99.90
17092;DHT22;8661;45.700;4.880;2023-12-20T07:15:37;4.60;99.90
17092;DHT22;8661;45.700;4.880;2023-12-20T07:18:08;4.60;99.90
17092;DHT22;8661;45.700;4.880;2023-12-20T07:20:38;4.60;99.90
17092;DHT22;8661;45.700;4.880;2023-12-20T07:23:17;4.60;99.90
17092;DHT22;8661;45.700;4.880;2023-12-20T07:25:52;4.60;99.90
17092;DHT22;8661;45.700;4.880;2023-12-20T07:28:53;4.70;99.90
17092;DHT22;8661;45.700;4.880;2023-12-20T07:31:48;4.60;99.90
17092;DHT22;8661;45.700;4.880;2023-12-20T07:34:17;4.70;99.90
17092;DHT22;8661;45.700;4.880;2023-12-20T07:36:47;4.70;99.90
17092;DHT22;8661;45.700;4.880;2023-12-20T07:39:16;4.70;99.90
17092;DHT22;8661;45.700;4.880;2023-12-20T07:41:47;4.70;99.90
17092;DHT22;8661;45.700;4.880;2023-12-20T07:44:37;4.80;99.90
17092;DHT22;8661;45.700;4.880;2023-12-20T07:47:19;4.70;99.90
17092;DHT22;8661;45.700;4.880;2023-12-20T07:49:52;4.80;99.90
17092;DHT22;8661;45.700;4.880;2023-12-20T07:52:19;4.80;99.90
17092;DHT22;8661;45.700;4.880;2023-12-20T07:54:51;4.80;99.90
17092;DHT22;8661;45.700;4.880;2023-12-20T07:57:18;4.80;99.90
17092;DHT22;8661;45.700;4.880;2023-12-20T07:59:46;4.90;99.90
17092;DHT22;8661;45.700;4.880;2023-12-20T08:02:34;4.90;99.90
17092;DHT22;8661;45.700;4.880;2023-12-20T08:05:12;5.00;99.90
17092;DHT22;8661;45.700;4.880;2023-12-20T08:08:08;5.10;99.90
17092;DHT22;8661;45.700;4.880;2023-12-20T08:14:03;5.20;99.90
17092;DHT22;8661;45.700;4.880;2023-12-20T08:16:55;5.30;99.90
17092;DHT22;8661;45.700;4.880;2023-12-20T08:19:28;5.30;99.90
17092;DHT22;8661;45.700;4.880;2023-12-20T08:22:03;5.40;99.90
17092;DHT22;8661;45.700;4.880;2023-12-20T08:24:48;5.40;99.90
17092;DHT22;8661;45.700;4.880;2023-12-20T08:27:24;5.40;99.90
17092;DHT22;8661;45.700;4.880;2023-12-20T08:30:02;5.50;99.90
17092;DHT22;8661;45.700;4.880;2023-12-20T08:32:40;5.50;99.90
17092;DHT22;8661;45.700;4.880;2023-12-20T08:35:16;5.60;99.90
17092;DHT22;8661;45.700;4.880;2023-12-20T08:37:58;5.60;99.90
17092;DHT22;8661;45.700;4.880;2023-12-20T08:40:26;5.60;99.90
17092;DHT22;8661;45.700;4.880;2023-12-20T08:42:53;5.60;99.90
17092;DHT22;8661;45.700;4.880;2023-12-20T08:45:48;5.60;99.90
17092;DHT22;8661;45.700;4.880;2023-12-20T08:48:23;5.50;99.90
17092;DHT22;8661;45.700;4.880;2023-12-20T08:51:13;5.50;99.90
17092;DHT22;8661;45.700;4.880;2023-12-20T08:54:00;5.50;99.90
17092;DHT22;8661;45.700;4.880;2023-12-20T08:56:45;5.50;99.90
17092;DHT22;8661;45.700;4.880;2023-12-20T08:59:43;5.60;99.90
17092;DHT22;8661;45.700;4.880;2023-12-20T09:02:40;5.60;99.90
17092;DHT22;8661;45.700;4.880;2023-12-20T09:05:25;5.70;99.90
17092;DHT22;8661;45.700;4.880;2023-12-20T09:08:16;5.70;99.90
17092;DHT22;8661;45.700;4.880;2023-12-20T09:10:43;5.80;99.90
17092;DHT22;8661;45.700;4.880;2023-12-20T09:13:27;5.90;99.90
17092;DHT22;8661;45.700;4.880;2023-12-20T09:16:10;6.00;99.90
17092;DHT22;8661;45.700;4.880;2023-12-20T09:18:49;6.10;99.90
17092;DHT22;8661;45.700;4.880;2023-12-20T09:21:20;6.30;99.90
17092;DHT22;8661;45.700;4.880;2023-12-20T09:23:51;6.40;99.90
17092;DHT22;8661;45.700;4.880;2023-12-20T09:26:18;6.50;99.90
17092;DHT22;8661;45.700;4.880;2023-12-20T09:28:54;6.60;99.90
17092;DHT22;8661;45.700;4.880;2023-12-20T09:31:24;6.60;99.90
17092;DHT22;8661;45.700;4.880;2023-12-20T09:33:52;6.70;99.90
17092;DHT22;8661;45.700;4.880;2023-12-20T09:36:19;6.80;99.90
17092;DHT22;8661;45.700;4.880;2023-12-20T09:38:52;6.90;99.90
17092;DHT22;8661;45.700;4.880;2023-12-20T09:41:20;7.00;99.90
17092;DHT22;8661;45.700;4.880;2023-12-20T09:43:49;7.10;99.90
17092;DHT22;8661;45.700;4.880;2023-12-20T09:46:22;7.20;99.90
17092;DHT22;8661;45.700;4.880;2023-12-20T09:49:18;7.30;99.90
17092;DHT22;8661;45.700;4.880;2023-12-20T09:51:56;7.40;99.90
17092;DHT22;8661;45.700;4.880;2023-12-20T09:54:28;7.50;99.90
17092;DHT22;8661;45.700;4.880;2023-12-20T09:56:56;7.60;99.90
17092;DHT22;8661;45.700;4.880;2023-12-20T09:59:24;7.80;99.90
17092;DHT22;8661;45.700;4.880;2023-12-20T10:01:51;8.00;99.90
17092;DHT22;8661;45.700;4.880;2023-12-20T10:04:24;8.10;99.90
17092;DHT22;8661;45.700;4.880;2023-12-20T10:07:02;8.20;99.90
17092;DHT22;8661;45.700;4.880;2023-12-20T10:09:32;8.30;99.90
17092;DHT22;8661;45.700;4.880;2023-12-20T10:12:00;8.30;99.90
17092;DHT22;8661;45.700;4.880;2023-12-20T10:14:27;8.30;99.90
17092;DHT22;8661;45.700;4.880;2023-12-20T10:17:19;8.40;99.90
17092;DHT22;8661;45.700;4.880;2023-12-20T10:19:52;8.50;99.90
17092;DHT22;8661;45.700;4.880;2023-12-20T10:22:19;8.60;99.90
17092;DHT22;8661;45.700;4.880;2023-12-20T10:24:49;8.80;99.90
17092;DHT22;8661;45.700;4.880;2023-12-20T10:27:24;8.90;99.90
17092;DHT22;8661;45.700;4.880;2023-12-20T10:30:03;9.10;99.90
17092;DHT22;8661;45.700;4.880;2023-12-20T10:32:37;9.30;99.90
17092;DHT22;8661;45.700;4.880;2023-12-20T10:35:09;9.40;99.90
17092;DHT22;8661;45.700;4.880;2023-12-20T10:37:42;9.50;99.90
17092;DHT22;8661;45.700;4.880;2023-12-20T10:40:16;9.50;99.90
17092;DHT22;8661;45.700;4.880;2023-12-20T10:42:43;9.60;99.90
17092;DHT22;8661;45.700;4.880;2023-12-20T10:45:13;9.70;99.90
17092;DHT22;8661;45.700;4.880;2023-12-20T10:47:44;9.70;99.90
17092;DHT22;8661;45.700;4.880;2023-12-20T10:50:20;9.80;99.90
17092;DHT22;8661;45.700;4.880;2023-12-20T10:52:52;9.80;99.90
17092;DHT22;8661;45.700;4.880;2023-12-20T10:55:48;10.20;99.90
17092;DHT22;8661;45.700;4.880;2023-12-20T10:58:30;11.00;99.90
17092;DHT22;8661;45.700;4.880;2023-12-20T11:01:02;11.00;99.90
17092;DHT22;8661;45.700;4.880;2023-12-20T11:03:34;10.90;99.90
17092;DHT22;8661;45.700;4.880;2023-12-20T11:06:09;10.70;99.90
17092;DHT22;8661;45.700;4.880;2023-12-20T11:08:46;10.50;99.90
17092;DHT22;8661;45.700;4.880;2023-12-20T11:11:28;10.30;99.90
17092;DHT22;8661;45.700;4.880;2023-12-20T11:14:03;10.10;99.90
17092;DHT22;8661;45.700;4.880;2023-12-20T11:16:31;9.90;99.90
17092;DHT22;8661;45.700;4.880;2023-12-20T11:19:06;9.70;99.90
17092;DHT22;8661;45.700;4.880;2023-12-20T11:21:46;9.60;99.90
17092;DHT22;8661;45.700;4.880;2023-12-20T11:24:23;9.50;99.90
17092;DHT22;8661;45.700;4.880;2023-12-20T11:26:55;9.70;99.90
17092;DHT22;8661;45.700;4.880;2023-12-20T11:29:30;9.60;99.90
17092;DHT22;8661;45.700;4.880;2023-12-20T11:32:27;9.30;99.90
17092;DHT22;8661;45.700;4.880;2023-12-20T11:34:58;9.20;99.90
17092;DHT22;8661;45.700;4.880;2023-12-20T11:37:32;9.10;99.90
17092;DHT22;8661;45.700;4.880;2023-12-20T11:40:03;9.00;99.90
17092;DHT22;8661;45.700;4.880;2023-12-20T11:42:38;8.90;99.90
17092;DHT22;8661;45.700;4.880;2023-12-20T11:45:08;8.80;99.90
17092;DHT22;8661;45.700;4.880;2023-12-20T11:47:40;8.70;99.90
17092;DHT22;8661;45.700;4.880;2023-12-20T11:50:16;8.70;99.90
17092;DHT22;8661;45.700;4.880;2023-12-20T11:52:45;8.70;99.90
17092;DHT22;8661;45.700;4.880;2023-12-20T11:55:13;8.60;99.90
17092;DHT22;8661;45.700;4.880;2023-12-20T11:57:43;8.60;99.90
17092;DHT22;8661;45.700;4.880;2023-12-20T12:00:14;8.50;99.90
17092;DHT22;8661;45.700;4.880;2023-12-20T12:02:45;8.50;99.90
17092;DHT22;8661;45.700;4.880;2023-12-20T12:05:21;8.40;99.90
17092;DHT22;8661;45.700;4.880;2023-12-20T12:07:50;8.40;99.90
17092;DHT22;8661;45.700;4.880;2023-12-20T12:10:17;8.30;99.90
17092;DHT22;8661;45.700;4.880;2023-12-20T12:12:44;8.30;99.90
17092;DHT22;8661;45.700;4.880;2023-12-20T12:15:17;8.30;99.90
17092;DHT22;8661;45.700;4.880;2023-12-20T12:18:23;8.30;99.90
17092;DHT22;8661;45.700;4.880;2023-12-20T12:21:04;8.40;99.90
17092;DHT22;8661;45.700;4.880;2023-12-20T12:23:49;8.30;99.90
17092;DHT22;8661;45.700;4.880;2023-12-20T12:26:40;8.30;99.90
17092;DHT22;8661;45.700;4.880;2023-12-20T12:30:47;8.30;99.90
17092;DHT22;8661;45.700;4.880;2023-12-20T12:36:20;8.20;99.90
17092;DHT22;8661;45.700;4.880;2023-12-20T13:05:32;8.50;99.90
17092;DHT22;8661;45.700;4.880;2023-12-20T13:08:18;8.60;99.90
17092;DHT22;8661;45.700;4.880;2023-12-20T13:10:55;8.90;99.90
17092;DHT22;8661;45.700;4.880;2023-12-20T13:13:26;9.00;99.90
17092;DHT22;8661;45.700;4.880;2023-12-20T13:16:00;9.10;99.90
17092;DHT22;8661;45.700;4.880;2023-12-20T13:18:32;9.20;99.90
17092;DHT22;8661;45.700;4.880;2023-12-20T13:24:12;9.60;99.90
17092;DHT22;8661;45.700;4.880;2023-12-20T13:27:06;9.70;99.90
17092;DHT22;8661;45.700;4.880;2023-12-20T13:30:07;9.80;99.90
17092;DHT22;8661;45.700;4.880;2023-12-20T13:32:46;9.90;99.90
17092;DHT22;8661;45.700;4.880;2023-12-20T13:35:15;9.80;99.90
17092;DHT22;8661;45.700;4.880;2023-12-20T13:37:42;9.80;99.90
17092;DHT22;8661;45.700;4.880;2023-12-20T13:40:33;9.80;99.90
17092;DHT22;8661;45.700;4.880;2023-12-20T13:43:21;9.70;99.90
17092;DHT22;8661;45.700;4.880;2023-12-20T13:46:11;9.60;99.90
17092;DHT22;8661;45.700;4.880;2023-12-20T13:49:56;9.60;99.90
17092;DHT22;8661;45.700;4.880;2023-12-20T13:51:51;9.50;99.90
17092;DHT22;8661;45.700;4.880;2023-12-20T13:54:29;9.50;99.90
17092;DHT22;8661;45.700;4.880;2023-12-20T13:57:12;9.50;99.90
17092;DHT22;8661;45.700;4.880;2023-12-20T14:00:02;9.50;99.90
17092;DHT22;8661;45.700;4.880;2023-12-20T14:02:59;9.60;99.90
17092;DHT22;8661;45.700;4.880;2023-12-20T14:05:33;9.80;99.90
17092;DHT22;8661;45.700;4.880;2023-12-20T14:08:08;10.30;99.90
17092;DHT22;8661;45.700;4.880;2023-12-20T14:11:00;10.90;99.90
17092;DHT22;8661;45.700;4.880;2023-12-20T14:13:43;11.70;99.90
17092;DHT22;8661;45.700;4.880;2023-12-20T14:16:17;13.20;99.90
17092;DHT22;8661;45.700;4.880;2023-12-20T14:18:59;14.70;99.90
17092;DHT22;8661;45.700;4.880;2023-12-20T14:21:40;15.70;99.90
17092;DHT22;8661;45.700;4.880;2023-12-20T14:24:30;16.60;99.90
17092;DHT22;8661;45.700;4.880;2023-12-20T14:26:57;17.10;99.90
17092;DHT22;8661;45.700;4.880;2023-12-20T14:35:45;12.70;99.90
17092;DHT22;8661;45.700;4.880;2023-12-20T14:38:34;12.10;99.90
17092;DHT22;8661;45.700;4.880;2023-12-20T14:41:27;11.50;99.90
17092;DHT22;8661;45.700;4.880;2023-12-20T14:44:13;10.80;99.90
17092;DHT22;8661;45.700;4.880;2023-12-20T14:46:58;10.40;99.90
17092;DHT22;8661;45.700;4.880;2023-12-20T14:49:40;10.10;99.90
17092;DHT22;8661;45.700;4.880;2023-12-20T14:56:31;9.90;99.90
17092;DHT22;8661;45.700;4.880;2023-12-20T14:59:12;9.70;99.90
17092;DHT22;8661;45.700;4.880;2023-12-20T15:07:25;9.40;99.90
17092;DHT22;8661;45.700;4.880;2023-12-20T15:09:33;9.30;99.90
17092;DHT22;8661;45.700;4.880;2023-12-20T15:16:22;9.00;99.90
17092;DHT22;8661;45.700;4.880;2023-12-20T15:25:47;8.70;99.90
17092;DHT22;8661;45.700;4.880;2023-12-20T15:32:03;8.50;99.90
17092;DHT22;8661;45.700;4.880;2023-12-20T15:35:31;8.40;99.90
17092;DHT22;8661;45.700;4.880;2023-12-20T15:38:44;8.40;99.90
17092;DHT22;8661;45.700;4.880;2023-12-20T15:41:24;8.30;99.90
17092;DHT22;8661;45.700;4.880;2023-12-20T15:43:56;8.20;99.90
17092;DHT22;8661;45.700;4.880;2023-12-20T15:46:29;8.20;99.90
17092;DHT22;8661;45.700;4.880;2023-12-20T15:49:20;8.10;99.90
17092;DHT22;8661;45.700;4.880;2023-12-20T15:51:55;8.00;99.90
17092;DHT22;8661;45.700;4.880;2023-12-20T15:55:05;8.00;99.90
17092;DHT22;8661;45.700;4.880;2023-12-20T16:07:12;7.50;99.90
17092;DHT22;8661;45.700;4.880;2023-12-20T16:11:22;7.50;99.90
17092;DHT22;8661;45.700;4.880;2023-12-20T16:13:35;7.40;99.90
17092;DHT22;8661;45.700;4.880;2023-12-20T16:16:28;7.60;99.90
17092;DHT22;8661;45.700;4.880;2023-12-20T16:19:47;8.00;99.90
17092;DHT22;8661;45.700;4.880;2023-12-20T16:35:43;8.30;99.90
17092;DHT22;8661;45.700;4.880;2023-12-20T16:38:32;8.30;99.90
17092;DHT22;8661;45.700;4.880;2023-12-20T16:41:24;8.30;99.90
17092;DHT22;8661;45.700;4.880;2023-12-20T16:47:29;8.30;99.90
17092;DHT22;8661;45.700;4.880;2023-12-20T16:53:06;8.20;99.90
17092;DHT22;8661;45.700;4.880;2023-12-20T16:55:43;8.10;99.90
17092;DHT22;8661;45.700;4.880;2023-12-20T16:58:18;7.90;99.90
17092;DHT22;8661;45.700;4.880;2023-12-20T17:01:21;7.90;99.90
17092;DHT22;8661;45.700;4.880;2023-12-20T17:14:12;7.20;99.90
17092;DHT22;8661;45.700;4.880;2023-12-20T17:17:16;7.10;99.90
17092;DHT22;8661;45.700;4.880;2023-12-20T17:21:21;7.00;99.90
17092;DHT22;8661;45.700;4.880;2023-12-20T17:23:12;7.00;99.90
17092;DHT22;8661;45.700;4.880;2023-12-20T17:25:47;7.00;99.90
17092;DHT22;8661;45.700;4.880;2023-12-20T17:28:44;7.00;99.90
17092;DHT22;8661;45.700;4.880;2023-12-20T17:31:36;7.00;99.90
17092;DHT22;8661;45.700;4.880;2023-12-20T17:37:57;6.70;99.90
17092;DHT22;8661;45.700;4.880;2023-12-20T17:40:31;6.50;99.90
17092;DHT22;8661;45.700;4.880;2023-12-20T17:43:08;6.30;99.90
17092;DHT22;8661;45.700;4.880;2023-12-20T17:45:56;6.20;99.90
17092;DHT22;8661;45.700;4.880;2023-12-20T17:48:43;6.20;99.90
17092;DHT22;8661;45.700;4.880;2023-12-20T17:51:18;6.10;99.90
17092;DHT22;8661;45.700;4.880;2023-12-20T17:53:52;6.10;99.90
17092;DHT22;8661;45.700;4.880;2023-12-20T17:56:38;6.10;99.90
17092;DHT22;8661;45.700;4.880;2023-12-20T17:59:25;6.00;99.90
17092;DHT22;8661;45.700;4.880;2023-12-20T18:02:54;5.90;99.90
17092;DHT22;8661;45.700;4.880;2023-12-20T18:05:41;5.90;99.90
17092;DHT22;8661;45.700;4.880;2023-12-20T18:18:19;5.90;99.90
17092;DHT22;8661;45.700;4.880;2023-12-20T18:24:27;6.00;99.90
17092;DHT22;8661;45.700;4.880;2023-12-20T18:26:57;5.90;99.90
17092;DHT22;8661;45.700;4.880;2023-12-20T18:29:41;5.90;99.90
17092;DHT22;8661;45.700;4.880;2023-12-20T18:32:21;6.00;99.90
17092;DHT22;8661;45.700;4.880;2023-12-20T18:35:47;6.00;99.90
17092;DHT22;8661;45.700;4.880;2023-12-20T18:38:24;6.00;99.90
17092;DHT22;8661;45.700;4.880;2023-12-20T18:41:31;6.10;99.90
17092;DHT22;8661;45.700;4.880;2023-12-20T18:44:25;6.10;99.90
17092;DHT22;8661;45.700;4.880;2023-12-20T18:46:57;6.10;99.90
17092;DHT22;8661;45.700;4.880;2023-12-20T18:49:42;6.20;99.90
17092;DHT22;8661;45.700;4.880;2023-12-20T18:52:35;6.20;99.90
17092;DHT22;8661;45.700;4.880;2023-12-20T18:55:28;6.20;99.90
17092;DHT22;8661;45.700;4.880;2023-12-20T18:58:16;6.20;99.90
17092;DHT22;8661;45.700;4.880;2023-12-20T19:01:27;6.30;99.90